Time;durP1;ratioP1;P1;durP2;ratioP2;P2;SDS_P1;SDS_P2;PMS_P1;PMS_P2;Temp;Humidity;BMP_temperature;BMP_pressure;BME280_temperature;BME280_humidity;BME280_pressure;Samples;Min_cycle;Max_cycle;Signal;HPM_P1;HPM_P2
2023/11/06 00:02:05;;;;;;;10.45;3.08;;;8.60;99.90;;;;;;7372247;19;20077;-62
2023/11/06 00:04:32;;;;;;;10.55;3.53;;;8.70;99.90;;;;;;7368907;19;20054;-63
2023/11/06 00:07:18;;;;;;;9.40;2.97;;;8.70;99.90;;;;;;7382049;19;20017;-64
2023/11/06 00:09:48;;;;;;;6.28;2.92;;;8.80;99.90;;;;;;7394700;19;20022;-64
2023/11/06 00:12:15;;;;;;;12.15;3.60;;;8.80;99.90;;;;;;7397076;19;20014;-64
2023/11/06 00:14:41;;;;;;;11.15;3.20;;;8.90;99.90;;;;;;7398158;19;20078;-65
2023/11/06 00:17:07;;;;;;;8.38;2.88;;;9.00;99.90;;;;;;7397936;19;20011;-63
2023/11/06 00:19:34;;;;;;;9.70;3.20;;;8.90;99.90;;;;;;7395664;19;20015;-65
2023/11/06 00:22:00;;;;;;;11.32;2.97;;;8.90;99.90;;;;;;7395204;19;20017;-64
2023/11/06 00:24:31;;;;;;;8.55;3.05;;;8.80;99.90;;;;;;7395240;19;20094;-65
2023/11/06 00:26:58;;;;;;;6.15;3.13;;;8.90;99.90;;;;;;7395392;19;20010;-64
2023/11/06 00:29:28;;;;;;;8.95;3.50;;;8.90;99.90;;;;;;7395568;19;20086;-64
2023/11/06 00:32:02;;;;;;;9.38;4.38;;;8.80;99.90;;;;;;7393973;19;20018;-65
2023/11/06 00:34:33;;;;;;;6.97;3.70;;;8.80;99.90;;;;;;7397118;19;20026;-65
2023/11/06 00:37:00;;;;;;;;;;;8.70;99.90;;;;;;7397192;19;20509;-63
2023/11/06 00:39:28;;;;;;;7.35;4.28;;;8.80;99.90;;;;;;7384810;19;19929;-62
2023/11/06 00:41:54;;;;;;;8.85;5.20;;;8.80;99.90;;;;;;7367318;19;20056;-63
2023/11/06 00:44:21;;;;;;;11.98;5.53;;;8.80;99.90;;;;;;7367151;19;20055;-62
2023/11/06 00:46:47;;;;;;;11.55;5.80;;;8.80;99.90;;;;;;7367223;19;20015;-62
2023/11/06 00:49:13;;;;;;;11.48;5.65;;;8.80;99.90;;;;;;7368424;19;20379;-62
2023/11/06 00:51:40;;;;;;;10.60;5.95;;;8.80;99.90;;;;;;7367597;19;20014;-62
2023/11/06 00:54:06;;;;;;;12.50;6.25;;;8.90;99.90;;;;;;7369040;19;20732;-63
2023/11/06 00:56:35;;;;;;;12.35;6.28;;;8.90;99.90;;;;;;7368379;19;20014;-63
2023/11/06 00:59:02;;;;;;;10.27;6.47;;;8.90;99.90;;;;;;7369352;19;20024;-63
2023/11/06 01:01:29;;;;;;;9.35;6.03;;;9.00;99.90;;;;;;7391375;19;20006;-64
2023/11/06 01:03:57;;;;;;;11.93;6.50;;;9.00;99.90;;;;;;7393866;19;20464;-65
2023/11/06 01:06:45;;;;;;;13.05;6.90;;;9.10;99.90;;;;;;7394280;19;20490;-65
2023/11/06 01:09:16;;;;;;;10.75;5.78;;;9.10;99.90;;;;;;7397393;19;20474;-63
2023/11/06 01:11:48;;;;;;;13.25;7.00;;;9.20;99.90;;;;;;7392065;19;20039;-64
2023/11/06 01:14:14;;;;;;;;;;;9.20;99.90;;;;;;7393421;19;20038;-63
2023/11/06 01:16:41;;;;;;;10.18;5.45;;;9.10;99.90;;;;;;7392612;19;20314;-63
2023/11/06 01:19:08;;;;;;;8.32;5.25;;;9.10;99.90;;;;;;7391361;19;20479;-63
2023/11/06 01:21:34;;;;;;;8.38;5.28;;;9.10;99.90;;;;;;7392139;19;20017;-63
2023/11/06 01:24:00;;;;;;;10.23;5.35;;;9.20;99.90;;;;;;7392153;19;20038;-64
2023/11/06 01:26:27;;;;;;;10.40;5.28;;;9.10;99.90;;;;;;7390230;19;20398;-64
2023/11/06 01:28:54;;;;;;;10.32;6.55;;;9.10;99.90;;;;;;7379529;19;20014;-62
2023/11/06 01:31:20;;;;;;;10.18;6.72;;;9.10;99.90;;;;;;7371831;19;20718;-62
2023/11/06 01:33:47;;;;;;;9.23;7.45;;;9.00;99.90;;;;;;7378635;19;20018;-62
2023/11/06 01:36:13;;;;;;;15.27;7.82;;;9.00;99.90;;;;;;7377496;19;20018;-63
2023/11/06 01:38:40;;;;;;;13.15;8.75;;;9.00;99.90;;;;;;7397417;19;20095;-63
2023/11/06 01:41:06;;;;;;;16.60;9.43;;;9.00;99.90;;;;;;7396870;19;20493;-65
2023/11/06 01:43:32;;;;;;;17.80;10.15;;;8.90;99.90;;;;;;7398109;19;20017;-64
2023/11/06 01:45:59;;;;;;;18.35;10.65;;;9.10;99.90;;;;;;7395165;19;20015;-64
2023/11/06 01:48:29;;;;;;;15.13;10.52;;;9.10;99.90;;;;;;7395052;19;20021;-65
2023/11/06 01:50:56;;;;;;;18.20;10.88;;;9.10;99.90;;;;;;7392877;19;20015;-65
2023/11/06 01:53:24;;;;;;;24.10;11.45;;;9.10;99.90;;;;;;7394167;19;20082;-64
2023/11/06 01:55:51;;;;;;;17.15;11.02;;;9.10;99.90;;;;;;7395363;19;20023;-65
2023/11/06 01:58:19;;;;;;;22.55;12.18;;;9.10;99.90;;;;;;7395063;19;20010;-63
2023/11/06 02:00:46;;;;;;;16.70;11.43;;;9.20;99.90;;;;;;7396315;19;20454;-63
2023/11/06 02:03:13;;;;;;;21.65;12.43;;;9.20;99.90;;;;;;7397918;19;20021;-64
2023/11/06 02:05:44;;;;;;;18.80;12.30;;;9.20;99.90;;;;;;7386870;19;20710;-62
2023/11/06 02:08:10;;;;;;;19.17;11.85;;;9.20;99.90;;;;;;7376979;19;20019;-61
2023/11/06 02:10:37;;;;;;;19.50;12.35;;;9.20;99.90;;;;;;7366955;19;20039;-62
2023/11/06 02:13:03;;;;;;;17.83;13.05;;;9.30;99.90;;;;;;7370432;19;20035;-62
2023/11/06 02:15:30;;;;;;;18.65;12.95;;;9.30;99.90;;;;;;7371719;19;20061;-62
2023/11/06 02:17:57;;;;;;;21.98;13.68;;;9.30;99.90;;;;;;7374051;19;20025;-62
2023/11/06 02:20:23;;;;;;;23.33;14.02;;;9.40;99.90;;;;;;7372441;19;20074;-62
2023/11/06 02:22:58;;;;;;;26.75;14.63;;;9.40;99.90;;;;;;7369490;19;20014;-62
2023/11/06 02:25:24;;;;;;;23.40;15.07;;;9.40;99.90;;;;;;7375740;19;20038;-62
2023/11/06 02:27:50;;;;;;;21.98;15.48;;;9.40;99.90;;;;;;7374934;19;20027;-63
2023/11/06 02:30:17;;;;;;;17.92;14.55;;;9.40;99.90;;;;;;7374422;19;20026;-62
2023/11/06 02:32:44;;;;;;;20.20;15.18;;;9.40;99.90;;;;;;7376457;19;20021;-62
2023/11/06 02:35:10;;;;;;;21.58;15.18;;;9.40;99.90;;;;;;7372274;19;20019;-62
2023/11/06 02:37:37;;;;;;;21.58;14.98;;;9.40;99.90;;;;;;7373736;19;20497;-62
2023/11/06 02:40:06;;;;;;;21.83;15.60;;;9.30;99.90;;;;;;7369112;19;20019;-62
2023/11/06 02:42:38;;;;;;;23.52;14.73;;;9.30;99.90;;;;;;7371463;19;20011;-62
2023/11/06 02:45:06;;;;;;;19.88;14.23;;;9.30;99.90;;;;;;7371816;19;20018;-62
2023/11/06 02:47:33;;;;;;;23.48;14.20;;;9.20;99.90;;;;;;7372161;19;20042;-62
2023/11/06 02:49:59;;;;;;;21.88;13.65;;;9.30;99.90;;;;;;7372733;19;20043;-62
2023/11/06 02:52:26;;;;;;;20.50;13.57;;;9.20;99.90;;;;;;7384699;19;20025;-63
2023/11/06 02:54:54;;;;;;;18.48;13.77;;;9.20;99.90;;;;;;7385941;19;20015;-64
2023/11/06 02:57:20;;;;;;;21.65;13.25;;;9.20;99.90;;;;;;7387469;19;20018;-64
2023/11/06 02:59:46;;;;;;;23.00;13.13;;;9.30;99.90;;;;;;7385748;19;20572;-63
2023/11/06 03:02:13;;;;;;;19.05;13.93;;;9.20;99.90;;;;;;7387159;19;20054;-64
2023/11/06 03:04:39;;;;;;;20.92;14.00;;;9.20;99.90;;;;;;7387085;19;20014;-64
2023/11/06 03:07:06;;;;;;;21.20;14.15;;;9.20;99.90;;;;;;7388369;19;20019;-64
2023/11/06 03:09:32;;;;;;;21.08;13.27;;;9.30;99.90;;;;;;7385848;19;20770;-65
2023/11/06 03:11:58;;;;;;;17.13;13.32;;;9.30;99.90;;;;;;7384365;19;20022;-65
2023/11/06 03:14:25;;;;;;;20.83;13.45;;;9.30;99.90;;;;;;7384297;19;20011;-65
2023/11/06 03:16:51;;;;;;;23.60;13.27;;;9.30;99.90;;;;;;7387271;19;20066;-65
2023/11/06 03:19:17;;;;;;;19.40;13.45;;;9.20;99.90;;;;;;7387531;19;20027;-64
2023/11/06 03:21:44;;;;;;;16.75;13.35;;;9.20;99.90;;;;;;7388098;19;20037;-63
2023/11/06 03:24:10;;;;;;;17.10;13.88;;;9.30;99.90;;;;;;7391526;19;20060;-65
2023/11/06 03:26:39;;;;;;;21.85;13.88;;;9.20;99.90;;;;;;7390633;19;20054;-63
2023/11/06 03:29:06;;;;;;;22.77;13.05;;;9.20;99.90;;;;;;7374691;19;20110;-62
2023/11/06 03:31:32;;;;;;;21.75;13.10;;;9.30;99.90;;;;;;7387323;19;20024;-63
2023/11/06 03:33:58;;;;;;;22.17;13.65;;;9.30;99.90;;;;;;7390801;19;20015;-63
2023/11/06 03:36:24;;;;;;;22.38;13.77;;;9.30;99.90;;;;;;7390369;19;20477;-63
2023/11/06 03:38:51;;;;;;;21.65;14.63;;;9.30;99.90;;;;;;7393719;19;20421;-63
2023/11/06 03:41:18;;;;;;;16.15;14.23;;;9.30;99.90;;;;;;7391976;19;20018;-64
2023/11/06 03:43:51;;;;;;;23.10;14.30;;;9.30;99.90;;;;;;7392158;19;20014;-65
2023/11/06 03:46:20;;;;;;;19.50;13.23;;;9.30;99.90;;;;;;7391169;19;20015;-64
2023/11/06 03:48:47;;;;;;;17.05;13.95;;;9.40;99.90;;;;;;7391937;19;20030;-65
2023/11/06 03:51:14;;;;;;;19.33;13.07;;;9.30;99.90;;;;;;7390265;19;20011;-65
2023/11/06 03:53:41;;;;;;;18.27;13.68;;;9.30;99.90;;;;;;7390595;19;20048;-64
2023/11/06 03:56:09;;;;;;;13.85;11.70;;;9.30;99.90;;;;;;7387812;19;20070;-63
2023/11/06 03:58:36;;;;;;;13.35;11.93;;;9.20;99.90;;;;;;7386040;19;20070;-64
2023/11/06 04:01:05;;;;;;;15.85;12.00;;;9.30;99.90;;;;;;7389588;19;20022;-64
2023/11/06 04:03:31;;;;;;;14.93;11.32;;;9.30;99.90;;;;;;7388824;19;20018;-64
2023/11/06 04:06:00;;;;;;;15.68;10.90;;;9.30;99.90;;;;;;7385838;19;20019;-64
2023/11/06 04:08:26;;;;;;;18.13;11.65;;;9.30;99.90;;;;;;7376690;19;20022;-64
2023/11/06 04:10:53;;;;;;;19.67;11.90;;;9.30;99.90;;;;;;7384037;19;20058;-63
2023/11/06 04:13:19;;;;;;;14.63;10.68;;;9.30;99.90;;;;;;7381623;19;20465;-65
2023/11/06 04:15:45;;;;;;;16.73;12.30;;;9.30;99.90;;;;;;7377973;19;20074;-61
2023/11/06 04:18:13;;;;;;;18.50;13.52;;;9.20;99.90;;;;;;7372377;19;20058;-64
2023/11/06 04:20:41;;;;;;;16.00;13.00;;;9.20;99.90;;;;;;7369725;19;20397;-61
2023/11/06 04:23:09;;;;;;;15.02;13.10;;;9.20;99.90;;;;;;7367670;19;20018;-61
2023/11/06 04:25:38;;;;;;;18.02;13.38;;;9.20;99.90;;;;;;7368872;19;20449;-62
2023/11/06 04:28:05;;;;;;;17.95;13.57;;;9.20;99.90;;;;;;7365591;19;20525;-61
2023/11/06 04:30:34;;;;;;;19.02;15.20;;;9.20;99.90;;;;;;7368863;19;20073;-62
2023/11/06 04:33:00;;;;;;;18.08;15.02;;;9.20;99.90;;;;;;7386487;19;20344;-64
2023/11/06 04:35:27;;;;;;;22.50;14.77;;;9.20;99.90;;;;;;7382359;19;20473;-61
2023/11/06 04:38:17;;;;;;;22.75;15.85;;;9.20;99.90;;;;;;7392072;19;20086;-64
2023/11/06 04:40:44;;;;;;;22.95;16.10;;;9.30;99.90;;;;;;7393415;19;20103;-64
2023/11/06 04:43:10;;;;;;;23.75;18.13;;;9.30;99.90;;;;;;7392466;19;20018;-64
2023/11/06 04:45:38;;;;;;;27.83;16.60;;;9.20;99.90;;;;;;7392827;19;20010;-65
2023/11/06 04:48:06;;;;;;;25.27;17.45;;;9.30;99.90;;;;;;7385548;19;20026;-64
2023/11/06 04:50:32;;;;;;;24.83;16.75;;;9.30;99.90;;;;;;7394626;19;20380;-64
2023/11/06 04:53:01;;;;;;;23.85;16.65;;;9.30;99.90;;;;;;7392806;19;20481;-64
2023/11/06 04:55:27;;;;;;;22.35;17.15;;;9.30;99.90;;;;;;7392724;19;20025;-63
2023/11/06 04:57:53;;;;;;;23.17;17.02;;;9.30;99.90;;;;;;7393782;19;20031;-63
2023/11/06 05:00:20;;;;;;;22.63;17.55;;;9.30;99.90;;;;;;7365410;19;20015;-61
2023/11/06 05:02:46;;;;;;;26.65;17.00;;;9.40;99.90;;;;;;7369078;19;20015;-62
2023/11/06 05:05:13;;;;;;;21.52;16.83;;;9.40;99.90;;;;;;7372081;19;20019;-61
2023/11/06 05:07:41;;;;;;;20.02;15.90;;;9.40;99.90;;;;;;7376195;19;20035;-61
2023/11/06 05:10:08;;;;;;;22.92;17.00;;;9.40;99.90;;;;;;7388289;19;20045;-65
2023/11/06 05:12:38;;;;;;;27.00;16.75;;;9.40;99.90;;;;;;7396735;19;20015;-65
2023/11/06 05:15:05;;;;;;;21.50;17.15;;;9.40;99.90;;;;;;7398690;19;20431;-63
2023/11/06 05:17:36;;;;;;;25.30;17.38;;;9.40;99.90;;;;;;7397957;19;20944;-65
2023/11/06 05:20:03;;;;;;;25.00;17.90;;;9.30;99.90;;;;;;7395223;19;20364;-62
2023/11/06 05:22:30;;;;;;;26.48;17.08;;;9.40;99.90;;;;;;7372488;19;20022;-62
2023/11/06 05:24:56;;;;;;;26.00;17.98;;;9.40;99.90;;;;;;7374150;19;20018;-62
2023/11/06 05:27:22;;;;;;;26.08;17.80;;;9.40;99.90;;;;;;7374783;19;20022;-62
2023/11/06 05:29:48;;;;;;;23.77;17.90;;;9.40;99.90;;;;;;7376762;19;20022;-63
2023/11/06 05:32:15;;;;;;;24.73;17.38;;;9.40;99.90;;;;;;7373738;19;20083;-62
2023/11/06 05:34:41;;;;;;;22.45;16.60;;;9.50;99.90;;;;;;7371493;19;20462;-62
2023/11/06 05:37:08;;;;;;;24.77;18.50;;;9.40;99.90;;;;;;7374766;19;20040;-62
2023/11/06 05:39:36;;;;;;;23.08;18.17;;;9.50;99.90;;;;;;7382316;19;20018;-65
2023/11/06 05:42:04;;;;;;;22.85;18.02;;;9.40;99.90;;;;;;7397120;19;20019;-64
2023/11/06 05:44:31;;;;;;;23.92;17.60;;;9.50;99.90;;;;;;7396332;19;20369;-64
2023/11/06 05:46:57;;;;;;;22.70;17.50;;;9.50;99.90;;;;;;7376505;19;20457;-62
2023/11/06 05:49:23;;;;;;;23.70;17.13;;;9.50;99.90;;;;;;7394209;19;20023;-65
2023/11/06 05:51:51;;;;;;;27.30;18.35;;;9.50;99.90;;;;;;7378057;19;20018;-61
2023/11/06 05:54:17;;;;;;;26.73;16.50;;;9.50;99.90;;;;;;7373278;19;20034;-62
2023/11/06 05:56:44;;;;;;;28.27;17.88;;;9.50;99.90;;;;;;7371074;19;20114;-62
2023/11/06 05:59:10;;;;;;;23.77;16.83;;;9.50;99.90;;;;;;7384304;19;20015;-64
2023/11/06 06:01:47;;;;;;;24.45;17.00;;;9.50;99.90;;;;;;7396434;19;20014;-65
2023/11/06 06:04:14;;;;;;;27.25;17.33;;;9.60;99.90;;;;;;7399459;19;20018;-65
2023/11/06 06:06:54;;;;;;;23.52;16.38;;;9.50;99.90;;;;;;7400154;19;20019;-65
2023/11/06 06:09:21;;;;;;;26.35;16.15;;;9.50;99.90;;;;;;7399018;19;20010;-64
2023/11/06 06:11:47;;;;;;;20.70;16.80;;;9.50;99.90;;;;;;7399631;19;20722;-64
2023/11/06 06:14:13;;;;;;;23.05;16.00;;;9.50;99.90;;;;;;7380680;19;20019;-64
2023/11/06 06:20:44;;;;;;;24.60;17.25;;;9.50;99.90;;;;;;7401816;19;20018;-65
2023/11/06 06:23:17;;;;;;;27.73;18.13;;;9.50;99.90;;;;;;7401017;19;20050;-65
2023/11/06 06:25:47;;;;;;;22.77;17.67;;;9.50;99.90;;;;;;7402809;19;20010;-64
2023/11/06 06:28:50;;;;;;;26.02;18.58;;;9.50;99.90;;;;;;7402662;19;20010;-64
2023/11/06 06:31:21;;;;;;;21.10;18.40;;;9.60;99.90;;;;;;7401901;19;20018;-65
2023/11/06 06:33:58;;;;;;;20.80;18.48;;;9.50;99.90;;;;;;7402882;19;20034;-64
2023/11/06 06:36:32;;;;;;;29.15;19.65;;;9.50;99.90;;;;;;7397146;19;20010;-64
2023/11/06 06:38:58;;;;;;;25.08;18.67;;;9.50;99.90;;;;;;7394794;19;20425;-63
2023/11/06 06:41:26;;;;;;;24.88;19.13;;;9.50;99.90;;;;;;7382195;19;20046;-65
2023/11/06 06:43:57;;;;;;;25.52;19.83;;;9.50;99.90;;;;;;7402325;19;20400;-64
2023/11/06 06:49:48;;;;;;;20.92;17.63;;;9.40;99.90;;;;;;7388294;19;20022;-63
2023/11/06 06:52:16;;;;;;;24.63;17.90;;;9.40;99.90;;;;;;7373245;19;20022;-62
2023/11/06 06:54:42;;;;;;;18.90;16.00;;;9.40;99.90;;;;;;7373960;19;20093;-63
2023/11/06 06:57:09;;;;;;;17.30;14.75;;;9.40;99.90;;;;;;7374789;19;20082;-62
2023/11/06 06:59:36;;;;;;;20.35;15.00;;;9.30;99.90;;;;;;7373623;19;20017;-62
2023/11/06 07:02:02;;;;;;;19.52;14.32;;;9.30;99.90;;;;;;7375357;19;20074;-62
2023/11/06 07:04:29;;;;;;;20.25;14.95;;;9.20;99.90;;;;;;7388045;19;20019;-64
2023/11/06 07:06:55;;;;;;;19.77;15.93;;;9.20;99.90;;;;;;7395604;19;20048;-62
2023/11/06 07:09:25;;;;;;;20.75;15.52;;;9.10;99.90;;;;;;7373700;19;20022;-64
2023/11/06 07:11:51;;;;;;;21.05;14.90;;;9.10;99.90;;;;;;7377728;19;20049;-62
2023/11/06 07:14:18;;;;;;;24.02;15.65;;;9.10;99.90;;;;;;7373218;19;20019;-62
2023/11/06 07:16:44;;;;;;;20.65;14.75;;;9.10;99.90;;;;;;7371933;19;20014;-61
2023/11/06 07:19:11;;;;;;;19.88;14.52;;;9.10;99.90;;;;;;7371268;19;20106;-62
2023/11/06 07:21:38;;;;;;;22.52;13.05;;;9.10;99.90;;;;;;7374691;19;20622;-62
2023/11/06 07:24:04;;;;;;;16.67;13.88;;;9.10;99.90;;;;;;7367721;19;20548;-62
2023/11/06 07:26:30;;;;;;;16.05;12.02;;;9.00;99.90;;;;;;7371067;19;20025;-61
2023/11/06 07:28:56;;;;;;;16.05;11.98;;;9.00;99.90;;;;;;7372151;19;20011;-61
2023/11/06 07:31:23;;;;;;;16.27;12.68;;;9.00;99.90;;;;;;7374341;19;20014;-62
2023/11/06 07:33:50;;;;;;;19.20;12.00;;;9.00;99.90;;;;;;7372518;19;20023;-61
2023/11/06 07:36:16;;;;;;;20.52;12.95;;;9.00;99.90;;;;;;7370913;19;20018;-60
2023/11/06 07:38:42;;;;;;;18.33;13.02;;;9.00;99.90;;;;;;7369786;19;20029;-61
2023/11/06 07:41:12;;;;;;;25.67;12.75;;;8.90;99.90;;;;;;7364438;19;20350;-60
2023/11/06 07:43:38;;;;;;;15.15;12.02;;;8.90;99.90;;;;;;7371880;19;20097;-61
2023/11/06 07:46:05;;;;;;;22.45;12.90;;;8.90;99.90;;;;;;7372232;19;20514;-62
2023/11/06 07:48:31;;;;;;;23.52;14.43;;;8.90;99.90;;;;;;7379183;19;20018;-64
2023/11/06 07:50:58;;;;;;;18.13;11.57;;;9.00;99.90;;;;;;7383884;19;20029;-65
2023/11/06 07:53:25;;;;;;;15.40;9.32;;;9.00;99.90;;;;;;7376597;19;20847;-61
2023/11/06 07:55:51;;;;;;;12.43;8.88;;;9.00;99.90;;;;;;7369516;19;20029;-61
2023/11/06 07:58:17;;;;;;;10.95;6.68;;;9.00;99.90;;;;;;7374100;19;20019;-61
2023/11/06 08:00:44;;;;;;;17.23;6.95;;;9.10;99.90;;;;;;7366661;19;20025;-62
2023/11/06 08:03:10;;;;;;;13.00;6.10;;;9.10;99.90;;;;;;7375552;19;20050;-62
2023/11/06 08:05:37;;;;;;;12.30;5.85;;;9.10;99.90;;;;;;7367101;19;20058;-65
2023/11/06 08:08:03;;;;;;;15.93;6.30;;;9.20;99.90;;;;;;7372916;19;20011;-63
2023/11/06 08:10:31;;;;;;;10.18;5.40;;;9.20;99.90;;;;;;7366484;19;20133;-62
2023/11/06 08:12:59;;;;;;;13.20;6.03;;;9.30;99.90;;;;;;7373352;19;20067;-64
2023/11/06 08:15:25;;;;;;;10.82;5.43;;;9.40;99.90;;;;;;7372865;19;20069;-63
2023/11/06 08:17:52;;;;;;;14.85;6.75;;;9.40;99.90;;;;;;7369814;19;21689;-63
2023/11/06 08:20:18;;;;;;;11.75;5.25;;;9.60;99.90;;;;;;7370545;19;20078;-64
2023/11/06 08:22:45;;;;;;;11.25;5.03;;;9.90;99.90;;;;;;7368154;19;20038;-63
2023/11/06 08:25:12;;;;;;;13.32;5.38;;;9.90;99.90;;;;;;7372418;19;20098;-63
2023/11/06 08:27:39;;;;;;;8.27;4.78;;;10.20;99.90;;;;;;7367709;19;20117;-64
2023/11/06 08:30:09;;;;;;;12.02;5.43;;;10.60;99.90;;;;;;7373698;19;20010;-64
2023/11/06 08:32:36;;;;;;;8.88;4.35;;;10.90;99.90;;;;;;7368615;19;20021;-64
2023/11/06 08:35:05;;;;;;;8.32;4.55;;;11.00;99.90;;;;;;7372850;19;20054;-64
2023/11/06 08:37:32;;;;;;;7.47;4.28;;;11.40;99.90;;;;;;7370419;19;20902;-64
2023/11/06 08:39:58;;;;;;;10.27;4.55;;;11.50;99.90;;;;;;7377231;19;20015;-65
2023/11/06 08:42:25;;;;;;;11.20;3.90;;;11.90;99.90;;;;;;7373143;19;20362;-65
2023/11/06 08:44:51;;;;;;;8.68;4.50;;;12.20;99.90;;;;;;7379758;19;20014;-65
2023/11/06 08:47:19;;;;;;;8.73;4.18;;;12.30;99.90;;;;;;7376841;19;20026;-64
2023/11/06 08:49:46;;;;;;;6.93;3.85;;;12.30;99.90;;;;;;7378690;19;20093;-65
2023/11/06 08:52:12;;;;;;;14.02;3.88;;;12.10;99.90;;;;;;7373724;19;20026;-64
2023/11/06 08:54:44;;;;;;;9.52;4.60;;;11.80;99.90;;;;;;7378780;19;20098;-65
2023/11/06 08:57:10;;;;;;;9.25;3.85;;;11.70;99.90;;;;;;7377076;19;20484;-65
2023/11/06 08:59:36;;;;;;;8.55;3.95;;;11.60;99.90;;;;;;7376603;19;20029;-64
2023/11/06 09:02:06;;;;;;;8.05;3.95;;;11.50;99.90;;;;;;7380745;19;20033;-65
2023/11/06 09:04:33;;;;;;;9.57;4.30;;;11.40;99.90;;;;;;7369393;19;20591;-65
2023/11/06 09:07:01;;;;;;;12.00;4.28;;;11.40;99.90;;;;;;7370044;19;20082;-65
2023/11/06 09:09:28;;;;;;;8.65;3.75;;;11.40;99.90;;;;;;7374968;19;20024;-65
2023/11/06 09:11:55;;;;;;;11.02;3.83;;;11.30;99.90;;;;;;7379570;19;20038;-65
2023/11/06 09:14:21;;;;;;;10.70;4.05;;;11.00;99.90;;;;;;7377335;19;20595;-65
2023/11/06 09:16:47;;;;;;;10.50;3.97;;;10.90;99.90;;;;;;7377416;19;20022;-65
2023/11/06 09:19:13;;;;;;;9.45;3.30;;;10.70;99.90;;;;;;7376434;19;20122;-65
2023/11/06 09:21:40;;;;;;;10.60;3.65;;;10.60;99.90;;;;;;7376417;19;20019;-65
2023/11/06 09:24:08;;;;;;;11.40;3.60;;;10.60;99.90;;;;;;7374441;19;20010;-65
2023/11/06 09:26:35;;;;;;;9.88;3.67;;;10.60;99.90;;;;;;7377059;19;20879;-65
2023/11/06 09:29:01;;;;;;;10.90;3.75;;;10.90;99.90;;;;;;7388880;19;20358;-65
2023/11/06 09:31:28;;;;;;;10.65;3.28;;;11.30;99.90;;;;;;7385131;19;20022;-67
2023/11/06 09:33:54;;;;;;;7.95;2.88;;;11.70;99.90;;;;;;7384800;19;20453;-66
2023/11/06 09:36:22;;;;;;;9.13;2.45;;;12.10;99.90;;;;;;7385804;19;20107;-69
2023/11/06 09:38:48;;;;;;;9.80;3.13;;;12.00;99.90;;;;;;7372824;19;20091;-64
2023/11/06 09:41:15;;;;;;;10.23;3.20;;;11.90;99.90;;;;;;7377110;19;20022;-64
2023/11/06 09:43:45;;;;;;;8.35;2.63;;;11.60;99.90;;;;;;7376625;19;20014;-64
2023/11/06 09:46:12;;;;;;;7.72;2.08;;;11.50;99.90;;;;;;7375872;19;20022;-63
2023/11/06 09:48:38;;;;;;;7.75;2.25;;;11.40;99.90;;;;;;7374025;19;20018;-64
2023/11/06 09:51:11;;;;;;;8.15;2.58;;;11.30;99.90;;;;;;7371248;19;20656;-64
2023/11/06 09:53:48;;;;;;;10.20;2.30;;;11.40;99.90;;;;;;7374638;19;20037;-63
2023/11/06 09:56:15;;;;;;;7.82;2.78;;;11.50;99.90;;;;;;7373197;19;20035;-64
2023/11/06 09:58:42;;;;;;;7.40;2.90;;;11.70;99.90;;;;;;7374321;19;20048;-61
2023/11/06 10:01:09;;;;;;;9.27;2.85;;;11.70;99.90;;;;;;7373010;19;20037;-64
2023/11/06 10:03:36;;;;;;;6.32;2.38;;;11.80;99.90;;;;;;7373365;19;20528;-64
2023/11/06 10:06:04;;;;;;;9.55;2.85;;;11.80;99.90;;;;;;7376519;19;20023;-66
2023/11/06 10:08:31;;;;;;;8.05;2.20;;;11.90;99.90;;;;;;7393193;19;20099;-67
2023/11/06 10:11:00;;;;;;;8.80;2.25;;;11.90;99.90;;;;;;7389585;19;20034;-67
2023/11/06 10:13:28;;;;;;;8.38;2.15;;;11.90;99.90;;;;;;7390573;19;20041;-66
2023/11/06 10:15:55;;;;;;;7.60;2.00;;;11.90;99.90;;;;;;7394919;19;20026;-67
2023/11/06 10:18:26;;;;;;;9.27;1.98;;;11.90;99.90;;;;;;7394887;19;20011;-66
2023/11/06 10:20:55;;;;;;;;;;;12.00;99.90;;;;;;7392080;19;20074;-67
2023/11/06 10:23:35;;;;;;;8.48;2.08;;;11.90;99.90;;;;;;7392356;19;19967;-67
2023/11/06 10:26:12;;;;;;;6.03;1.92;;;11.90;99.90;;;;;;7392063;19;20018;-67
2023/11/06 10:28:38;;;;;;;6.55;1.70;;;11.90;99.90;;;;;;7394144;19;20094;-67
2023/11/06 10:31:05;;;;;;;6.72;1.75;;;11.90;99.90;;;;;;7397474;19;20011;-67
2023/11/06 10:33:35;;;;;;;7.38;2.38;;;11.90;99.90;;;;;;7398217;19;20358;-67
2023/11/06 10:36:15;;;;;;;12.52;2.35;;;12.00;99.90;;;;;;7394599;19;20011;-67
2023/11/06 10:38:43;;;;;;;5.90;2.00;;;12.10;99.90;;;;;;7386778;19;20041;-64
2023/11/06 10:41:24;;;;;;;7.18;1.50;;;12.10;99.90;;;;;;7371593;19;20478;-63
2023/11/06 10:43:57;;;;;;;9.85;3.00;;;12.10;99.90;;;;;;7379153;19;20015;-64
2023/11/06 10:46:32;;;;;;;10.68;2.33;;;12.10;99.90;;;;;;7370329;19;20022;-64
2023/11/06 10:49:11;;;;;;;9.00;2.47;;;12.00;99.90;;;;;;7373816;19;20019;-64
2023/11/06 10:51:41;;;;;;;6.53;2.10;;;12.10;99.90;;;;;;7370539;19;20119;-64
2023/11/06 10:54:08;;;;;;;10.85;2.35;;;12.10;99.90;;;;;;7376213;19;20018;-62
2023/11/06 10:56:36;;;;;;;10.00;1.98;;;12.00;99.90;;;;;;7371636;19;20640;-64
2023/11/06 10:59:03;;;;;;;8.93;2.05;;;12.00;99.90;;;;;;7370949;19;20022;-64
2023/11/06 11:01:38;;;;;;;9.48;2.58;;;11.90;99.90;;;;;;7368588;19;20023;-63
2023/11/06 11:04:08;;;;;;;7.13;2.67;;;11.90;99.90;;;;;;7367880;19;20099;-65
2023/11/06 11:06:39;;;;;;;7.72;2.05;;;11.80;99.90;;;;;;7371388;19;20566;-65
2023/11/06 11:09:10;;;;;;;6.63;2.30;;;11.80;99.90;;;;;;7370009;19;20018;-65
2023/11/06 11:11:39;;;;;;;8.48;2.70;;;11.70;99.90;;;;;;7369964;19;20026;-65
2023/11/06 11:14:06;;;;;;;7.50;2.45;;;11.50;99.90;;;;;;7373969;19;20046;-65
2023/11/06 11:16:45;;;;;;;7.95;2.35;;;11.40;99.90;;;;;;7371707;19;20027;-65
2023/11/06 11:19:18;;;;;;;8.27;2.70;;;11.30;99.90;;;;;;7371305;19;20042;-65
2023/11/06 11:22:02;;;;;;;11.07;2.90;;;11.30;99.90;;;;;;7371232;19;20039;-64
2023/11/06 11:25:17;;;;;;;11.85;3.00;;;11.30;99.90;;;;;;7371183;19;20011;-67
2023/11/06 11:27:37;;;;;;;13.90;2.97;;;11.40;99.90;;;;;;7378753;19;20103;-67
2023/11/06 11:30:04;;;;;;;12.45;3.17;;;11.40;99.90;;;;;;7392428;19;21011;-65
2023/11/06 11:32:30;;;;;;;11.95;2.65;;;11.40;99.90;;;;;;7371691;19;20011;-64
2023/11/06 11:35:18;;;;;;;8.38;2.40;;;11.40;99.90;;;;;;7372944;19;20010;-67
2023/11/06 11:37:58;;;;;;;7.75;2.40;;;11.30;99.90;;;;;;7395910;19;20355;-67
2023/11/06 11:40:51;;;;;;;6.70;1.90;;;11.40;99.90;;;;;;7393273;19;20034;-67
2023/11/06 11:43:40;;;;;;;13.27;2.60;;;11.30;99.90;;;;;;7395553;19;20006;-67
2023/11/06 11:46:34;;;;;;;6.35;2.40;;;11.30;99.90;;;;;;7395091;19;20019;-67
2023/11/06 11:49:00;;;;;;;8.05;2.55;;;11.30;99.90;;;;;;7394344;19;20013;-67
2023/11/06 11:51:51;;;;;;;9.27;3.05;;;11.20;99.90;;;;;;7394948;19;20081;-67
2023/11/06 11:54:31;;;;;;;8.45;2.65;;;11.20;99.90;;;;;;7394641;19;20029;-67
2023/11/06 11:56:59;;;;;;;7.47;2.25;;;11.30;99.90;;;;;;7388741;19;20014;-64
2023/11/06 11:59:26;;;;;;;7.43;2.50;;;11.30;99.90;;;;;;7365822;19;20094;-65
2023/11/06 12:01:53;;;;;;;10.88;2.55;;;11.40;99.90;;;;;;7373240;19;20026;-65
2023/11/06 12:04:24;;;;;;;9.10;2.35;;;11.30;99.90;;;;;;7368896;19;20078;-65
2023/11/06 12:07:03;;;;;;;8.07;2.53;;;11.40;99.90;;;;;;7369342;19;20026;-64
2023/11/06 12:09:48;;;;;;;10.93;2.80;;;11.30;99.90;;;;;;7369693;19;20018;-64
2023/11/06 12:12:21;;;;;;;8.63;2.67;;;11.30;99.90;;;;;;7371967;19;21458;-65
2023/11/06 12:14:48;;;;;;;8.25;2.85;;;11.30;99.90;;;;;;7370210;19;20046;-64
2023/11/06 12:17:29;;;;;;;7.22;2.28;;;11.20;99.90;;;;;;7371971;19;20022;-61
2023/11/06 12:19:59;;;;;;;10.15;3.08;;;11.20;99.90;;;;;;7367449;19;20475;-65
2023/11/06 12:22:33;;;;;;;8.68;2.78;;;11.20;99.90;;;;;;7373389;19;20029;-65
2023/11/06 12:25:00;;;;;;;9.70;2.67;;;11.20;99.90;;;;;;7368941;19;20126;-63
2023/11/06 12:27:37;;;;;;;8.52;2.53;;;11.20;99.90;;;;;;7368580;19;20015;-65
2023/11/06 12:30:07;;;;;;;8.52;3.25;;;11.20;99.90;;;;;;7369630;19;20021;-64
2023/11/06 12:32:36;;;;;;;12.45;3.30;;;11.20;99.90;;;;;;7372339;19;20123;-65
2023/11/06 12:35:14;;;;;;;10.48;3.25;;;11.00;99.90;;;;;;7367299;19;20150;-64
2023/11/06 12:37:53;;;;;;;12.15;4.20;;;10.80;99.90;;;;;;7371082;19;20022;-64
2023/11/06 12:40:22;;;;;;;7.85;3.70;;;10.70;99.90;;;;;;7367194;19;20049;-65
2023/11/06 12:42:52;;;;;;;8.90;4.20;;;10.60;99.90;;;;;;7367545;19;20070;-65
2023/11/06 12:45:41;;;;;;;11.50;4.30;;;10.40;99.90;;;;;;7371663;19;20504;-64
2023/11/06 12:48:28;;;;;;;11.82;3.90;;;10.30;99.90;;;;;;7367011;19;20015;-64
2023/11/06 12:51:10;;;;;;;8.50;3.78;;;10.30;99.90;;;;;;7369806;19;20025;-64
2023/11/06 12:53:46;;;;;;;11.82;4.28;;;10.20;99.90;;;;;;7366899;19;20019;-63
2023/11/06 12:56:14;;;;;;;9.18;3.50;;;10.20;99.90;;;;;;7367720;19;20080;-63
2023/11/06 12:58:44;;;;;;;8.57;3.28;;;10.10;99.90;;;;;;7366644;19;20428;-63
2023/11/06 13:01:28;;;;;;;10.50;3.60;;;10.10;99.90;;;;;;7363640;19;20026;-63